sensor_id;sensor_type;location;lat;lon;timestamp;P1;durP1;ratioP1;P2;durP2;ratioP2
55678;SDS011;41573;51.446;-2.018;2023-03-14T12:28:38;13.45;;;12.60;;
55678;SDS011;41573;51.446;-2.018;2023-03-14T12:34:10;7.13;;;6.75;;
55678;SDS011;41573;51.446;-2.018;2023-03-14T12:41:51;36.28;;;34.53;;
55678;SDS011;41573;51.446;-2.018;2023-03-14T12:46:59;944.47;;;854.60;;
55678;SDS011;41573;51.446;-2.018;2023-03-14T12:49:31;1036.03;;;924.15;;
55678;SDS011;41573;51.446;-2.018;2023-03-14T12:52:00;514.25;;;476.23;;
55678;SDS011;41573;51.446;-2.018;2023-03-14T12:57:06;558.00;;;514.13;;
55678;SDS011;41573;51.446;-2.018;2023-03-14T12:59:52;744.22;;;685.30;;
55678;SDS011;41573;51.446;-2.018;2023-03-14T13:02:40;744.95;;;681.10;;
55678;SDS011;41573;51.446;-2.018;2023-03-14T13:05:12;705.35;;;652.08;;
55678;SDS011;41573;51.446;-2.018;2023-03-14T13:16:09;423.90;;;401.00;;
55678;SDS011;41573;51.446;-2.018;2023-03-14T13:18:46;270.73;;;254.82;;
55678;SDS011;41573;51.446;-2.018;2023-03-14T13:21:24;313.92;;;295.33;;
55678;SDS011;41573;51.446;-2.018;2023-03-14T13:24:02;178.50;;;168.10;;
55678;SDS011;41573;51.446;-2.018;2023-03-14T13:26:36;241.20;;;225.98;;
55678;SDS011;41573;51.446;-2.018;2023-03-14T13:29:25;406.13;;;382.95;;
55678;SDS011;41573;51.446;-2.018;2023-03-14T13:31:54;596.65;;;554.70;;
55678;SDS011;41573;51.446;-2.018;2023-03-14T13:34:24;485.23;;;453.90;;
55678;SDS011;41573;51.446;-2.018;2023-03-14T13:36:54;599.00;;;556.53;;
55678;SDS011;41573;51.446;-2.018;2023-03-14T13:39:20;345.70;;;321.88;;
55678;SDS011;41573;51.446;-2.018;2023-03-14T13:41:50;378.88;;;353.92;;
55678;SDS011;41573;51.446;-2.018;2023-03-14T13:44:17;503.52;;;467.88;;
55678;SDS011;41573;51.446;-2.018;2023-03-14T13:46:49;360.85;;;337.20;;
55678;SDS011;41573;51.446;-2.018;2023-03-14T13:49:21;479.02;;;447.35;;
55678;SDS011;41573;51.446;-2.018;2023-03-14T13:51:48;254.25;;;238.93;;
55678;SDS011;41573;51.446;-2.018;2023-03-14T13:54:15;249.98;;;232.98;;
55678;SDS011;41573;51.446;-2.018;2023-03-14T13:56:42;245.23;;;229.20;;
55678;SDS011;41573;51.446;-2.018;2023-03-14T14:02:12;330.85;;;309.90;;
55678;SDS011;41573;51.446;-2.018;2023-03-14T14:04:40;223.90;;;206.02;;
55678;SDS011;41573;51.446;-2.018;2023-03-14T14:07:07;490.25;;;456.90;;
55678;SDS011;41573;51.446;-2.018;2023-03-14T14:09:40;260.85;;;242.73;;
55678;SDS011;41573;51.446;-2.018;2023-03-14T14:12:12;236.13;;;220.13;;
55678;SDS011;41573;51.446;-2.018;2023-03-14T14:15:02;442.42;;;412.77;;
55678;SDS011;41573;51.446;-2.018;2023-03-14T14:17:33;412.35;;;383.67;;
55678;SDS011;41573;51.446;-2.018;2023-03-14T14:20:12;432.27;;;398.60;;
55678;SDS011;41573;51.446;-2.018;2023-03-14T14:23:03;639.58;;;591.13;;
55678;SDS011;41573;51.446;-2.018;2023-03-14T14:25:31;442.98;;;408.98;;
55678;SDS011;41573;51.446;-2.018;2023-03-14T14:27:58;474.08;;;439.10;;
55678;SDS011;41573;51.446;-2.018;2023-03-14T14:30:25;506.40;;;470.23;;
55678;SDS011;41573;51.446;-2.018;2023-03-14T14:33:17;470.63;;;434.95;;
55678;SDS011;41573;51.446;-2.018;2023-03-14T14:38:42;401.75;;;375.67;;
55678;SDS011;41573;51.446;-2.018;2023-03-14T14:41:10;686.92;;;629.90;;
55678;SDS011;41573;51.446;-2.018;2023-03-14T14:43:38;565.78;;;521.53;;
55678;SDS011;41573;51.446;-2.018;2023-03-14T14:46:05;431.10;;;402.90;;
55678;SDS011;41573;51.446;-2.018;2023-03-14T14:48:36;477.40;;;439.60;;
55678;SDS011;41573;51.446;-2.018;2023-03-14T14:53:34;440.90;;;405.55;;
55678;SDS011;41573;51.446;-2.018;2023-03-14T14:56:17;492.40;;;452.15;;
55678;SDS011;41573;51.446;-2.018;2023-03-14T14:58:47;510.42;;;471.70;;
55678;SDS011;41573;51.446;-2.018;2023-03-14T15:01:17;457.55;;;423.52;;
55678;SDS011;41573;51.446;-2.018;2023-03-14T15:03:47;425.48;;;394.50;;
55678;SDS011;41573;51.446;-2.018;2023-03-14T15:06:16;525.47;;;487.48;;
55678;SDS011;41573;51.446;-2.018;2023-03-14T15:08:42;622.55;;;575.78;;
55678;SDS011;41573;51.446;-2.018;2023-03-14T15:11:12;539.67;;;496.10;;
55678;SDS011;41573;51.446;-2.018;2023-03-14T15:13:44;635.40;;;585.22;;
55678;SDS011;41573;51.446;-2.018;2023-03-14T15:16:13;696.58;;;641.67;;
55678;SDS011;41573;51.446;-2.018;2023-03-14T15:18:42;571.70;;;526.90;;
55678;SDS011;41573;51.446;-2.018;2023-03-14T15:21:09;651.05;;;596.38;;
55678;SDS011;41573;51.446;-2.018;2023-03-14T15:23:35;769.13;;;702.95;;
55678;SDS011;41573;51.446;-2.018;2023-03-14T15:26:00;442.25;;;408.92;;
55678;SDS011;41573;51.446;-2.018;2023-03-14T15:28:27;468.27;;;433.73;;
55678;SDS011;41573;51.446;-2.018;2023-03-14T15:30:54;518.03;;;485.73;;
55678;SDS011;41573;51.446;-2.018;2023-03-14T15:33:22;519.65;;;488.00;;
55678;SDS011;41573;51.446;-2.018;2023-03-14T15:35:49;567.97;;;531.72;;
55678;SDS011;41573;51.446;-2.018;2023-03-14T15:38:16;353.05;;;331.10;;
55678;SDS011;41573;51.446;-2.018;2023-03-14T15:40:48;596.25;;;550.63;;
55678;SDS011;41573;51.446;-2.018;2023-03-14T15:43:14;375.27;;;346.48;;
55678;SDS011;41573;51.446;-2.018;2023-03-14T15:45:40;423.92;;;393.55;;
55678;SDS011;41573;51.446;-2.018;2023-03-14T15:48:06;506.92;;;456.98;;
55678;SDS011;41573;51.446;-2.018;2023-03-14T15:50:37;572.75;;;510.40;;
55678;SDS011;41573;51.446;-2.018;2023-03-14T15:53:02;701.97;;;634.35;;
55678;SDS011;41573;51.446;-2.018;2023-03-14T15:55:27;714.38;;;636.65;;
55678;SDS011;41573;51.446;-2.018;2023-03-14T15:57:53;549.95;;;502.65;;
55678;SDS011;41573;51.446;-2.018;2023-03-14T16:00:19;455.50;;;423.23;;
55678;SDS011;41573;51.446;-2.018;2023-03-14T16:02:46;556.85;;;511.20;;
55678;SDS011;41573;51.446;-2.018;2023-03-14T16:05:13;336.08;;;303.17;;
55678;SDS011;41573;51.446;-2.018;2023-03-14T16:07:38;575.50;;;523.97;;
55678;SDS011;41573;51.446;-2.018;2023-03-14T16:10:05;469.48;;;429.17;;
55678;SDS011;41573;51.446;-2.018;2023-03-14T16:12:32;622.30;;;571.88;;
55678;SDS011;41573;51.446;-2.018;2023-03-14T16:14:58;470.75;;;436.05;;
55678;SDS011;41573;51.446;-2.018;2023-03-14T16:17:24;571.58;;;528.45;;
55678;SDS011;41573;51.446;-2.018;2023-03-14T16:19:49;586.53;;;540.42;;
55678;SDS011;41573;51.446;-2.018;2023-03-14T16:22:15;502.48;;;462.27;;
55678;SDS011;41573;51.446;-2.018;2023-03-14T16:24:40;535.70;;;493.70;;
55678;SDS011;41573;51.446;-2.018;2023-03-14T16:27:06;552.75;;;509.20;;
55678;SDS011;41573;51.446;-2.018;2023-03-14T16:29:31;519.63;;;479.55;;
55678;SDS011;41573;51.446;-2.018;2023-03-14T16:31:57;685.13;;;626.58;;
55678;SDS011;41573;51.446;-2.018;2023-03-14T16:34:22;547.08;;;503.45;;
55678;SDS011;41573;51.446;-2.018;2023-03-14T16:36:48;692.65;;;637.88;;
55678;SDS011;41573;51.446;-2.018;2023-03-14T16:39:16;612.33;;;566.47;;
55678;SDS011;41573;51.446;-2.018;2023-03-14T16:41:44;628.80;;;578.13;;
55678;SDS011;41573;51.446;-2.018;2023-03-14T16:44:10;609.30;;;561.80;;
55678;SDS011;41573;51.446;-2.018;2023-03-14T16:46:35;605.35;;;553.97;;
55678;SDS011;41573;51.446;-2.018;2023-03-14T16:49:02;580.50;;;529.20;;
55678;SDS011;41573;51.446;-2.018;2023-03-14T16:51:28;492.83;;;450.35;;
55678;SDS011;41573;51.446;-2.018;2023-03-14T16:53:54;506.90;;;466.08;;
55678;SDS011;41573;51.446;-2.018;2023-03-14T16:56:20;470.80;;;434.23;;
55678;SDS011;41573;51.446;-2.018;2023-03-14T16:58:47;338.48;;;312.02;;
55678;SDS011;41573;51.446;-2.018;2023-03-14T17:01:16;309.98;;;283.60;;
55678;SDS011;41573;51.446;-2.018;2023-03-14T17:03:46;333.73;;;309.83;;
55678;SDS011;41573;51.446;-2.018;2023-03-14T17:06:14;493.55;;;452.50;;
55678;SDS011;41573;51.446;-2.018;2023-03-14T17:08:42;476.88;;;435.30;;
55678;SDS011;41573;51.446;-2.018;2023-03-14T17:11:08;431.33;;;393.35;;
55678;SDS011;41573;51.446;-2.018;2023-03-14T17:13:35;583.88;;;529.55;;
55678;SDS011;41573;51.446;-2.018;2023-03-14T17:16:01;495.58;;;451.92;;
55678;SDS011;41573;51.446;-2.018;2023-03-14T17:18:28;518.05;;;476.10;;
55678;SDS011;41573;51.446;-2.018;2023-03-14T17:20:55;784.03;;;717.80;;
55678;SDS011;41573;51.446;-2.018;2023-03-14T17:23:23;732.17;;;672.60;;
55678;SDS011;41573;51.446;-2.018;2023-03-14T17:25:50;743.88;;;682.03;;
55678;SDS011;41573;51.446;-2.018;2023-03-14T17:28:17;758.72;;;695.60;;
55678;SDS011;41573;51.446;-2.018;2023-03-14T17:33:32;466.25;;;434.08;;
55678;SDS011;41573;51.446;-2.018;2023-03-14T17:35:58;222.18;;;207.70;;
55678;SDS011;41573;51.446;-2.018;2023-03-14T17:38:24;389.27;;;364.08;;
55678;SDS011;41573;51.446;-2.018;2023-03-14T17:40:52;291.25;;;272.25;;
55678;SDS011;41573;51.446;-2.018;2023-03-14T17:43:56;98.13;;;92.43;;
55678;SDS011;41573;51.446;-2.018;2023-03-14T17:46:12;197.48;;;185.68;;
55678;SDS011;41573;51.446;-2.018;2023-03-14T17:48:50;185.82;;;174.52;;
55678;SDS011;41573;51.446;-2.018;2023-03-14T17:51:16;74.68;;;70.53;;
55678;SDS011;41573;51.446;-2.018;2023-03-14T17:53:43;213.93;;;198.93;;
55678;SDS011;41573;51.446;-2.018;2023-03-14T17:56:08;126.68;;;119.13;;
55678;SDS011;41573;51.446;-2.018;2023-03-14T17:58:44;197.60;;;186.02;;
55678;SDS011;41573;51.446;-2.018;2023-03-14T18:01:15;210.88;;;197.80;;
55678;SDS011;41573;51.446;-2.018;2023-03-14T18:03:45;88.25;;;83.00;;
55678;SDS011;41573;51.446;-2.018;2023-03-14T18:06:13;127.90;;;119.88;;
55678;SDS011;41573;51.446;-2.018;2023-03-14T18:08:44;181.38;;;170.25;;
55678;SDS011;41573;51.446;-2.018;2023-03-14T18:11:11;175.05;;;165.07;;
55678;SDS011;41573;51.446;-2.018;2023-03-14T18:13:41;70.20;;;66.43;;
55678;SDS011;41573;51.446;-2.018;2023-03-14T18:16:10;56.65;;;53.58;;
55678;SDS011;41573;51.446;-2.018;2023-03-14T18:18:48;131.13;;;124.35;;
55678;SDS011;41573;51.446;-2.018;2023-03-14T18:21:15;145.38;;;137.63;;
55678;SDS011;41573;51.446;-2.018;2023-03-14T18:23:46;97.45;;;91.93;;
55678;SDS011;41573;51.446;-2.018;2023-03-14T18:26:15;268.38;;;252.85;;
55678;SDS011;41573;51.446;-2.018;2023-03-14T18:28:40;208.95;;;196.93;;
55678;SDS011;41573;51.446;-2.018;2023-03-14T18:31:08;174.48;;;164.52;;
55678;SDS011;41573;51.446;-2.018;2023-03-14T18:33:41;98.20;;;93.03;;
55678;SDS011;41573;51.446;-2.018;2023-03-14T18:36:12;96.32;;;91.03;;
55678;SDS011;41573;51.446;-2.018;2023-03-14T18:41:51;58.33;;;55.35;;
55678;SDS011;41573;51.446;-2.018;2023-03-14T18:44:29;41.60;;;39.22;;
55678;SDS011;41573;51.446;-2.018;2023-03-14T18:47:02;33.20;;;31.23;;
55678;SDS011;41573;51.446;-2.018;2023-03-14T18:49:31;17.63;;;16.05;;
55678;SDS011;41573;51.446;-2.018;2023-03-14T18:51:58;30.73;;;28.80;;
55678;SDS011;41573;51.446;-2.018;2023-03-14T18:54:46;17.65;;;16.63;;
55678;SDS011;41573;51.446;-2.018;2023-03-14T18:57:24;33.17;;;31.48;;
55678;SDS011;41573;51.446;-2.018;2023-03-14T18:59:50;41.17;;;38.88;;
55678;SDS011;41573;51.446;-2.018;2023-03-14T19:02:21;13.07;;;12.13;;
55678;SDS011;41573;51.446;-2.018;2023-03-14T19:04:49;11.20;;;8.13;;
55678;SDS011;41573;51.446;-2.018;2023-03-14T19:07:20;35.13;;;32.83;;
55678;SDS011;41573;51.446;-2.018;2023-03-14T19:09:50;24.75;;;23.15;;
55678;SDS011;41573;51.446;-2.018;2023-03-14T19:12:18;8.85;;;8.15;;
55678;SDS011;41573;51.446;-2.018;2023-03-14T19:14:45;9.20;;;8.70;;
55678;SDS011;41573;51.446;-2.018;2023-03-14T19:17:18;22.33;;;20.38;;
55678;SDS011;41573;51.446;-2.018;2023-03-14T19:19:53;44.05;;;41.22;;
55678;SDS011;41573;51.446;-2.018;2023-03-14T19:22:56;9.82;;;8.70;;
55678;SDS011;41573;51.446;-2.018;2023-03-14T19:25:31;3.90;;;3.65;;
55678;SDS011;41573;51.446;-2.018;2023-03-14T19:28:10;14.82;;;13.77;;
55678;SDS011;41573;51.446;-2.018;2023-03-14T19:30:36;16.55;;;15.68;;
55678;SDS011;41573;51.446;-2.018;2023-03-14T19:33:11;35.92;;;33.67;;
55678;SDS011;41573;51.446;-2.018;2023-03-14T19:35:44;15.15;;;14.43;;
55678;SDS011;41573;51.446;-2.018;2023-03-14T19:38:28;3.58;;;3.38;;
55678;SDS011;41573;51.446;-2.018;2023-03-14T19:41:02;8.05;;;7.43;;
55678;SDS011;41573;51.446;-2.018;2023-03-14T19:43:29;7.72;;;7.32;;
55678;SDS011;41573;51.446;-2.018;2023-03-14T19:46:01;21.65;;;13.00;;
55678;SDS011;41573;51.446;-2.018;2023-03-14T19:48:35;7.47;;;3.97;;
55678;SDS011;41573;51.446;-2.018;2023-03-14T19:51:22;3.88;;;2.97;;
55678;SDS011;41573;51.446;-2.018;2023-03-14T19:54:00;3.38;;;3.17;;
55678;SDS011;41573;51.446;-2.018;2023-03-14T19:56:40;5.30;;;5.00;;
55678;SDS011;41573;51.446;-2.018;2023-03-14T19:59:09;8.88;;;8.23;;
55678;SDS011;41573;51.446;-2.018;2023-03-14T20:02:15;4.03;;;3.72;;
55678;SDS011;41573;51.446;-2.018;2023-03-14T20:04:45;3.55;;;2.47;;
55678;SDS011;41573;51.446;-2.018;2023-03-14T20:07:13;7.10;;;6.70;;
55678;SDS011;41573;51.446;-2.018;2023-03-14T20:09:47;7.88;;;2.97;;
55678;SDS011;41573;51.446;-2.018;2023-03-14T20:12:16;4.68;;;4.38;;
55678;SDS011;41573;51.446;-2.018;2023-03-14T20:14:42;5.97;;;5.55;;
55678;SDS011;41573;51.446;-2.018;2023-03-14T20:17:11;4.97;;;4.68;;
55678;SDS011;41573;51.446;-2.018;2023-03-14T20:19:38;3.38;;;3.17;;
55678;SDS011;41573;51.446;-2.018;2023-03-14T20:25:37;4.40;;;1.85;;
55678;SDS011;41573;51.446;-2.018;2023-03-14T20:28:37;6.03;;;1.67;;
55678;SDS011;41573;51.446;-2.018;2023-03-14T20:32:01;1.92;;;1.83;;
55678;SDS011;41573;51.446;-2.018;2023-03-14T20:34:31;1.45;;;1.38;;
